Time;durP1;ratioP1;P1;durP2;ratioP2;P2;SDS_P1;SDS_P2;PMS_P1;PMS_P2;Temp;Humidity;BMP_temperature;BMP_pressure;BME280_temperature;BME280_humidity;BME280_pressure;Samples;Min_cycle;Max_cycle;Signal;HPM_P1;HPM_P2
2023/08/14 00:00:28;;;;;;;8.75;3.58;;;;;;;;;;5050537;28;20199;-59
2023/08/14 00:02:54;;;;;;;9.00;3.65;;;;;;;;;;5047461;28;20238;-59
2023/08/14 00:05:19;;;;;;;9.15;3.97;;;;;;;;;;5050043;28;20205;-59
2023/08/14 00:07:44;;;;;;;5.70;3.47;;;;;;;;;;5050889;28;20217;-59
2023/08/14 00:10:10;;;;;;;9.38;3.80;;;;;;;;;;5047886;28;20207;-59
2023/08/14 00:12:35;;;;;;;11.93;4.15;;;;;;;;;;5049904;28;20298;-59
2023/08/14 00:15:00;;;;;;;7.47;3.17;;;;;;;;;;5050014;28;20225;-60
2023/08/14 00:17:26;;;;;;;9.18;3.42;;;;;;;;;;5049021;28;20215;-59
2023/08/14 00:19:51;;;;;;;9.45;3.47;;;;;;;;;;5048696;28;20215;-59
2023/08/14 00:22:16;;;;;;;11.50;3.60;;;;;;;;;;5049941;28;20755;-59
2023/08/14 00:24:41;;;;;;;8.35;3.53;;;;;;;;;;5049842;28;20306;-59
2023/08/14 00:27:07;;;;;;;7.07;3.35;;;;;;;;;;5047681;28;20207;-59
2023/08/14 00:29:32;;;;;;;7.80;3.03;;;;;;;;;;5050660;28;20218;-59
2023/08/14 00:31:57;;;;;;;7.70;3.30;;;;;;;;;;5049892;28;20633;-59
2023/08/14 00:34:23;;;;;;;8.30;3.40;;;;;;;;;;5048389;28;20735;-59
2023/08/14 00:36:48;;;;;;;8.20;3.50;;;;;;;;;;5048911;28;20228;-59
2023/08/14 00:39:13;;;;;;;10.07;3.95;;;;;;;;;;5048499;28;20245;-59
2023/08/14 00:41:39;;;;;;;8.52;3.88;;;;;;;;;;5049511;28;20219;-59
2023/08/14 00:44:04;;;;;;;8.68;3.97;;;;;;;;;;5047480;28;20234;-59
2023/08/14 00:46:30;;;;;;;8.80;3.85;;;;;;;;;;5049105;28;20678;-59
2023/08/14 00:48:55;;;;;;;6.85;3.50;;;;;;;;;;5049695;28;20341;-59
2023/08/14 00:51:20;;;;;;;6.40;3.35;;;;;;;;;;5047054;28;20235;-59
2023/08/14 00:53:46;;;;;;;9.60;3.70;;;;;;;;;;5049076;28;20215;-59
2023/08/14 00:56:11;;;;;;;8.95;3.55;;;;;;;;;;5031623;28;20579;-59
2023/08/14 00:58:36;;;;;;;8.05;3.95;;;;;;;;;;5047999;28;20581;-59
2023/08/14 01:01:02;;;;;;;7.60;3.58;;;;;;;;;;5048186;28;20690;-59
2023/08/14 01:03:27;;;;;;;8.60;3.80;;;;;;;;;;5049537;28;20219;-59
2023/08/14 01:05:52;;;;;;;9.40;3.67;;;;;;;;;;5048033;28;20536;-59
2023/08/14 01:08:17;;;;;;;9.88;3.88;;;;;;;;;;5046310;28;20215;-59
2023/08/14 01:10:51;;;;;;;8.35;3.78;;;;;;;;;;5049491;28;20756;-59
2023/08/14 01:13:26;;;;;;;7.97;3.30;;;;;;;;;;5048214;28;20269;-59
2023/08/14 01:15:53;;;;;;;8.55;3.40;;;;;;;;;;5029903;28;20213;-59
2023/08/14 01:18:18;;;;;;;7.78;3.75;;;;;;;;;;5047834;28;20288;-59
2023/08/14 01:20:44;;;;;;;6.95;3.40;;;;;;;;;;5030513;28;20670;-59
2023/08/14 01:23:19;;;;;;;7.25;3.30;;;;;;;;;;5030782;28;20229;-59
2023/08/14 01:25:45;;;;;;;7.72;3.40;;;;;;;;;;5046755;28;20214;-59
2023/08/14 01:28:10;;;;;;;8.57;3.53;;;;;;;;;;5030452;28;21299;-59
2023/08/14 01:30:35;;;;;;;10.77;3.75;;;;;;;;;;5049436;28;20253;-59
2023/08/14 01:33:00;;;;;;;7.13;3.38;;;;;;;;;;5047142;28;20233;-60
2023/08/14 01:35:26;;;;;;;7.43;3.50;;;;;;;;;;5047101;28;20589;-59
2023/08/14 01:37:54;;;;;;;7.93;3.60;;;;;;;;;;5027682;28;20694;-59
2023/08/14 01:40:26;;;;;;;10.45;4.03;;;;;;;;;;5026902;28;20617;-59
2023/08/14 01:42:52;;;;;;;7.65;3.65;;;;;;;;;;5024919;28;20220;-59
2023/08/14 01:45:18;;;;;;;8.30;3.63;;;;;;;;;;5027463;28;20207;-59
2023/08/14 01:47:43;;;;;;;9.20;3.53;;;;;;;;;;5028274;28;20214;-59
2023/08/14 01:50:09;;;;;;;7.32;3.30;;;;;;;;;;5025312;28;20227;-59
2023/08/14 01:52:34;;;;;;;7.80;3.60;;;;;;;;;;5027100;28;20224;-59
2023/08/14 01:55:00;;;;;;;7.82;3.53;;;;;;;;;;5028199;28;21030;-59
2023/08/14 01:57:26;;;;;;;6.93;4.00;;;;;;;;;;5027844;28;20211;-59
2023/08/14 01:59:51;;;;;;;6.90;3.95;;;;;;;;;;5027094;28;20223;-59
2023/08/14 02:02:17;;;;;;;8.63;3.65;;;;;;;;;;5027603;28;20219;-59
2023/08/14 02:04:42;;;;;;;7.72;4.22;;;;;;;;;;5028944;28;20212;-59
2023/08/14 02:07:09;;;;;;;10.57;4.20;;;;;;;;;;5025475;28;20266;-59
2023/08/14 02:09:35;;;;;;;8.90;4.45;;;;;;;;;;5019685;28;20750;-59
2023/08/14 02:12:00;;;;;;;8.18;4.22;;;;;;;;;;5028255;28;20208;-59
2023/08/14 02:14:25;;;;;;;7.45;3.70;;;;;;;;;;5026777;28;20569;-59
2023/08/14 02:16:51;;;;;;;6.75;3.90;;;;;;;;;;5026843;28;20302;-59
2023/08/14 02:19:16;;;;;;;6.68;3.80;;;;;;;;;;5027702;28;20211;-59
2023/08/14 02:21:41;;;;;;;7.63;4.05;;;;;;;;;;5027918;28;20311;-59
2023/08/14 02:24:07;;;;;;;9.63;3.78;;;;;;;;;;5025292;28;20211;-59
2023/08/14 02:26:32;;;;;;;8.93;4.30;;;;;;;;;;5028438;28;20271;-59
2023/08/14 02:28:58;;;;;;;9.07;4.00;;;;;;;;;;5026694;28;20222;-59
2023/08/14 02:31:23;;;;;;;9.52;3.90;;;;;;;;;;5024804;28;20207;-59
2023/08/14 02:33:48;;;;;;;7.05;3.83;;;;;;;;;;5028343;28;20208;-59
2023/08/14 02:36:13;;;;;;;7.10;3.72;;;;;;;;;;5027853;28;20705;-59
2023/08/14 02:38:39;;;;;;;13.10;5.05;;;;;;;;;;5036327;28;20709;-59
2023/08/14 02:41:06;;;;;;;10.32;4.93;;;;;;;;;;5046507;28;20206;-59
2023/08/14 02:43:31;;;;;;;14.93;6.65;;;;;;;;;;5048091;28;20302;-59
2023/08/14 02:45:57;;;;;;;10.13;5.93;;;;;;;;;;5046937;28;20298;-59
2023/08/14 02:48:23;;;;;;;9.20;5.38;;;;;;;;;;5045209;28;20225;-59
2023/08/14 02:50:48;;;;;;;11.43;6.88;;;;;;;;;;5048079;28;20264;-59
2023/08/14 02:53:14;;;;;;;11.25;7.60;;;;;;;;;;5028788;28;20211;-59
2023/08/14 02:55:39;;;;;;;14.80;7.82;;;;;;;;;;5046135;28;20222;-59
2023/08/14 02:58:04;;;;;;;10.43;6.60;;;;;;;;;;5049516;28;20264;-59
2023/08/14 03:00:29;;;;;;;9.27;6.70;;;;;;;;;;5048106;28;20205;-59
2023/08/14 03:02:55;;;;;;;7.97;5.63;;;;;;;;;;5048332;28;20275;-59
2023/08/14 03:05:20;;;;;;;6.18;4.93;;;;;;;;;;5044457;28;20226;-59
2023/08/14 03:07:45;;;;;;;7.03;5.00;;;;;;;;;;5047775;28;20265;-59
2023/08/14 03:10:11;;;;;;;7.00;4.65;;;;;;;;;;5047454;28;20243;-59
2023/08/14 03:12:36;;;;;;;7.22;4.85;;;;;;;;;;5045685;28;20255;-59
2023/08/14 03:15:02;;;;;;;7.72;5.18;;;;;;;;;;5046182;28;20222;-59
2023/08/14 03:17:27;;;;;;;6.38;4.80;;;;;;;;;;5047704;28;20207;-59
2023/08/14 03:19:52;;;;;;;7.75;5.03;;;;;;;;;;5046712;28;20573;-59
2023/08/14 03:22:18;;;;;;;7.78;4.47;;;;;;;;;;5045038;28;20219;-59
2023/08/14 03:24:43;;;;;;;8.35;4.97;;;;;;;;;;5047816;28;20211;-59
2023/08/14 03:27:08;;;;;;;6.53;4.60;;;;;;;;;;5046520;28;20580;-59
2023/08/14 03:29:34;;;;;;;7.40;4.68;;;;;;;;;;5045426;28;20207;-59
2023/08/14 03:31:59;;;;;;;9.80;5.18;;;;;;;;;;5051221;28;20235;-59
2023/08/14 03:34:24;;;;;;;7.50;5.25;;;;;;;;;;5050409;28;20218;-59
2023/08/14 03:36:50;;;;;;;9.77;5.28;;;;;;;;;;5050140;28;20273;-59
2023/08/14 03:39:15;;;;;;;8.10;5.30;;;;;;;;;;5049389;28;20713;-59
2023/08/14 03:41:41;;;;;;;8.18;4.90;;;;;;;;;;5050301;28;20713;-59
2023/08/14 03:44:06;;;;;;;8.80;4.88;;;;;;;;;;5050414;28;20215;-59
2023/08/14 03:46:31;;;;;;;7.38;5.28;;;;;;;;;;5049238;28;20222;-59
2023/08/14 03:48:57;;;;;;;10.40;6.05;;;;;;;;;;5050118;28;20872;-59
2023/08/14 03:51:22;;;;;;;7.53;5.50;;;;;;;;;;5050626;28;20292;-59
2023/08/14 03:53:47;;;;;;;9.55;6.13;;;;;;;;;;5048702;28;20225;-59
2023/08/14 03:56:13;;;;;;;8.80;6.18;;;;;;;;;;5049344;28;20670;-59
2023/08/14 03:58:38;;;;;;;10.57;6.55;;;;;;;;;;5050760;28;20207;-59
2023/08/14 04:01:03;;;;;;;11.02;6.30;;;;;;;;;;5049488;28;20207;-59
2023/08/14 04:03:28;;;;;;;8.07;6.03;;;;;;;;;;5048386;28;20226;-59
2023/08/14 04:05:55;;;;;;;10.23;6.85;;;;;;;;;;5051090;28;20207;-59
2023/08/14 04:08:21;;;;;;;11.13;6.75;;;;;;;;;;5049725;28;20219;-59
2023/08/14 04:10:51;;;;;;;11.60;7.88;;;;;;;;;;5047995;28;20215;-59
2023/08/14 04:13:16;;;;;;;7.60;6.50;;;;;;;;;;5050286;28;20257;-59
2023/08/14 04:15:42;;;;;;;9.98;7.07;;;;;;;;;;5049870;28;20215;-59
2023/08/14 04:18:07;;;;;;;12.45;6.47;;;;;;;;;;5048503;28;20215;-60
2023/08/14 04:20:32;;;;;;;9.45;6.75;;;;;;;;;;5049920;28;20207;-59
2023/08/14 04:22:57;;;;;;;9.57;7.30;;;;;;;;;;5049482;28;20654;-59
2023/08/14 04:25:23;;;;;;;11.13;7.40;;;;;;;;;;5049271;28;20573;-59
2023/08/14 04:27:48;;;;;;;11.95;7.45;;;;;;;;;;5048788;28;20587;-59
2023/08/14 04:30:13;;;;;;;10.52;8.02;;;;;;;;;;5049060;28;20211;-59
2023/08/14 04:32:39;;;;;;;11.45;7.88;;;;;;;;;;5050422;28;20222;-59
2023/08/14 04:35:05;;;;;;;9.75;7.55;;;;;;;;;;5047663;28;20290;-59
2023/08/14 04:37:30;;;;;;;10.73;7.78;;;;;;;;;;5049031;28;20720;-59
2023/08/14 04:39:56;;;;;;;11.85;8.05;;;;;;;;;;5050174;28;20253;-59
2023/08/14 04:42:21;;;;;;;10.45;8.10;;;;;;;;;;5047872;28;20223;-59
2023/08/14 04:44:46;;;;;;;11.57;8.60;;;;;;;;;;5048055;28;20211;-59
2023/08/14 04:47:12;;;;;;;12.32;7.30;;;;;;;;;;5049768;28;20218;-59
2023/08/14 04:49:37;;;;;;;11.23;7.93;;;;;;;;;;5049620;28;20702;-59
2023/08/14 04:52:02;;;;;;;11.48;7.82;;;;;;;;;;5046726;28;20222;-60
2023/08/14 04:54:28;;;;;;;12.07;8.15;;;;;;;;;;5049775;28;20302;-59
2023/08/14 04:56:53;;;;;;;13.63;7.80;;;;;;;;;;5049896;28;20211;-59
2023/08/14 04:59:18;;;;;;;13.30;7.40;;;;;;;;;;5046519;28;20207;-59
2023/08/14 05:01:45;;;;;;;9.75;7.40;;;;;;;;;;5049636;28;20219;-59
2023/08/14 05:04:10;;;;;;;10.38;6.97;;;;;;;;;;5049330;28;20265;-59
2023/08/14 05:06:35;;;;;;;10.93;6.80;;;;;;;;;;5048302;28;20203;-59
2023/08/14 05:09:01;;;;;;;10.05;7.25;;;;;;;;;;5047630;28;20215;-60
2023/08/14 05:11:26;;;;;;;12.75;6.80;;;;;;;;;;5049786;28;20247;-59
2023/08/14 05:13:51;;;;;;;9.75;6.55;;;;;;;;;;5048546;28;20249;-59
2023/08/14 05:16:16;;;;;;;9.38;6.80;;;;;;;;;;5046663;28;20257;-60
2023/08/14 05:18:42;;;;;;;8.88;5.80;;;;;;;;;;5048799;28;20207;-59
2023/08/14 05:21:07;;;;;;;9.35;5.50;;;;;;;;;;5048924;28;20211;-60
2023/08/14 05:23:32;;;;;;;9.65;5.32;;;;;;;;;;5047242;28;20249;-60
2023/08/14 05:25:58;;;;;;;7.75;5.15;;;;;;;;;;5047994;28;20215;-59
2023/08/14 05:28:23;;;;;;;11.75;5.15;;;;;;;;;;5048698;28;20219;-60
2023/08/14 05:30:48;;;;;;;9.88;5.28;;;;;;;;;;5048128;28;20210;-59
2023/08/14 05:33:14;;;;;;;8.35;5.20;;;;;;;;;;5046421;28;20207;-60
2023/08/14 05:35:39;;;;;;;8.63;5.07;;;;;;;;;;5049467;28;20226;-60
2023/08/14 05:38:04;;;;;;;9.10;4.75;;;;;;;;;;5030639;28;20266;-60
2023/08/14 05:40:30;;;;;;;11.20;4.72;;;;;;;;;;5045889;28;20302;-60
2023/08/14 05:43:03;;;;;;;7.60;4.32;;;;;;;;;;5048647;28;20300;-60
2023/08/14 05:45:28;;;;;;;8.85;4.82;;;;;;;;;;5048627;28;20222;-60
2023/08/14 05:47:53;;;;;;;10.90;4.95;;;;;;;;;;5046793;28;20217;-60
2023/08/14 05:50:21;;;;;;;9.63;5.22;;;;;;;;;;5047129;28;20775;-60
2023/08/14 05:52:46;;;;;;;9.27;4.88;;;;;;;;;;5048274;28;20219;-60
2023/08/14 05:55:11;;;;;;;9.90;5.15;;;;;;;;;;5046900;28;20678;-60
2023/08/14 05:57:37;;;;;;;9.75;5.43;;;;;;;;;;5046614;28;20211;-60
2023/08/14 06:00:02;;;;;;;8.85;5.85;;;;;;;;;;5048324;28;20219;-60
2023/08/14 06:02:27;;;;;;;10.25;5.50;;;;;;;;;;5048112;28;20697;-60
2023/08/14 06:04:53;;;;;;;8.90;5.47;;;;;;;;;;5046428;28;20226;-60
2023/08/14 06:07:18;;;;;;;8.65;5.15;;;;;;;;;;5048061;28;20329;-60
2023/08/14 06:09:43;;;;;;;8.55;5.97;;;;;;;;;;5047710;28;20547;-60
2023/08/14 06:12:09;;;;;;;11.50;5.55;;;;;;;;;;5046592;28;20258;-60
2023/08/14 06:14:34;;;;;;;9.02;5.80;;;;;;;;;;5047051;28;20782;-60
2023/08/14 06:16:59;;;;;;;10.77;6.00;;;;;;;;;;5047663;28;20210;-59
2023/08/14 06:19:24;;;;;;;10.10;5.43;;;;;;;;;;5047563;28;20211;-60
2023/08/14 06:21:50;;;;;;;10.95;6.03;;;;;;;;;;5046276;28;20264;-59
2023/08/14 06:24:16;;;;;;;9.68;6.22;;;;;;;;;;5047038;28;20298;-59
2023/08/14 06:26:41;;;;;;;10.73;7.30;;;;;;;;;;5047867;28;20268;-59
2023/08/14 06:29:07;;;;;;;11.27;7.32;;;;;;;;;;5044733;28;20215;-60
2023/08/14 06:31:32;;;;;;;17.25;8.93;;;;;;;;;;5047862;28;20279;-59
2023/08/14 06:33:58;;;;;;;14.90;9.05;;;;;;;;;;5048329;28;20215;-59
2023/08/14 06:36:23;;;;;;;12.57;8.57;;;;;;;;;;5045864;28;20311;-59
2023/08/14 06:38:48;;;;;;;16.08;9.95;;;;;;;;;;5046600;28;20222;-59
2023/08/14 06:41:14;;;;;;;13.40;9.70;;;;;;;;;;5047466;28;20244;-59
2023/08/14 06:43:39;;;;;;;18.00;11.18;;;;;;;;;;5047159;28;20219;-59
2023/08/14 06:46:04;;;;;;;15.27;10.93;;;;;;;;;;5045410;28;20215;-60
2023/08/14 06:48:32;;;;;;;16.95;10.93;;;;;;;;;;5048197;28;20211;-59
2023/08/14 06:50:59;;;;;;;21.08;11.60;;;;;;;;;;5047351;28;20223;-59
2023/08/14 06:53:24;;;;;;;17.48;10.93;;;;;;;;;;5045741;28;20670;-59
2023/08/14 06:55:49;;;;;;;17.88;11.25;;;;;;;;;;5047050;28;20314;-59
2023/08/14 06:58:15;;;;;;;20.58;11.10;;;;;;;;;;5046328;28;20207;-60
2023/08/14 07:00:40;;;;;;;19.17;11.65;;;;;;;;;;5047416;28;20294;-59
2023/08/14 07:03:05;;;;;;;18.55;11.65;;;;;;;;;;5045690;28;20779;-59
2023/08/14 07:05:31;;;;;;;20.92;11.95;;;;;;;;;;5050334;28;20214;-60
2023/08/14 07:07:56;;;;;;;17.10;11.13;;;;;;;;;;5052131;28;20247;-59
2023/08/14 07:10:21;;;;;;;20.85;11.70;;;;;;;;;;5048886;28;20225;-59
2023/08/14 07:12:48;;;;;;;17.83;11.30;;;;;;;;;;5050813;28;20218;-59
2023/08/14 07:15:13;;;;;;;20.85;11.05;;;;;;;;;;5050787;28;20688;-60
2023/08/14 07:17:39;;;;;;;17.92;10.40;;;;;;;;;;5050446;28;20211;-60
2023/08/14 07:20:05;;;;;;;18.20;10.77;;;;;;;;;;5049336;28;20217;-60
2023/08/14 07:22:30;;;;;;;19.42;10.43;;;;;;;;;;5051805;28;20231;-60
2023/08/14 07:24:55;;;;;;;16.77;10.00;;;;;;;;;;5051134;28;20276;-59
2023/08/14 07:27:21;;;;;;;18.90;10.77;;;;;;;;;;5048364;28;20219;-60
2023/08/14 07:29:46;;;;;;;16.95;10.52;;;;;;;;;;5051530;28;20241;-60
2023/08/14 07:32:11;;;;;;;16.05;10.13;;;;;;;;;;5051211;28;20218;-59
2023/08/14 07:34:37;;;;;;;16.27;9.70;;;;;;;;;;5048909;28;20305;-60
2023/08/14 07:37:02;;;;;;;15.13;9.20;;;;;;;;;;5050571;28;20226;-60
2023/08/14 07:39:27;;;;;;;18.13;9.50;;;;;;;;;;5050438;28;20213;-60
2023/08/14 07:41:53;;;;;;;18.30;10.10;;;;;;;;;;5049962;28;20226;-60
2023/08/14 07:44:18;;;;;;;18.67;8.40;;;;;;;;;;5049030;28;20752;-59
2023/08/14 07:46:43;;;;;;;14.85;9.00;;;;;;;;;;5050409;28;20215;-59
2023/08/14 07:49:09;;;;;;;16.73;8.30;;;;;;;;;;5050667;28;20231;-60
2023/08/14 07:51:35;;;;;;;13.55;8.60;;;;;;;;;;5048821;28;20219;-60
2023/08/14 07:54:00;;;;;;;14.98;9.40;;;;;;;;;;5050431;28;20264;-59
2023/08/14 07:56:25;;;;;;;19.88;9.52;;;;;;;;;;5050861;28;20211;-60
2023/08/14 07:58:51;;;;;;;13.48;8.77;;;;;;;;;;5049005;28;20246;-59
2023/08/14 08:01:17;;;;;;;13.40;9.02;;;;;;;;;;5048861;28;20890;-60
2023/08/14 08:03:42;;;;;;;13.95;8.60;;;;;;;;;;5050991;28;20215;-59
2023/08/14 08:06:07;;;;;;;18.05;9.65;;;;;;;;;;5049724;28;20629;-60
2023/08/14 08:08:33;;;;;;;14.18;9.02;;;;;;;;;;5048472;28;20215;-60
2023/08/14 08:10:58;;;;;;;15.73;9.40;;;;;;;;;;5050581;28;20221;-60
2023/08/14 08:13:23;;;;;;;17.73;9.52;;;;;;;;;;5050232;28;20211;-59
2023/08/14 08:15:49;;;;;;;16.48;9.57;;;;;;;;;;5046440;28;20215;-59
2023/08/14 08:18:14;;;;;;;17.58;9.48;;;;;;;;;;5050373;28;20217;-59
2023/08/14 08:20:39;;;;;;;18.63;9.63;;;;;;;;;;5050079;28;20690;-59
2023/08/14 08:23:05;;;;;;;18.33;9.00;;;;;;;;;;5047602;28;20310;-60
2023/08/14 08:25:30;;;;;;;16.10;8.35;;;;;;;;;;5049648;28;20290;-59
2023/08/14 08:27:56;;;;;;;17.65;8.95;;;;;;;;;;5050676;28;20848;-60
2023/08/14 08:30:21;;;;;;;16.48;8.70;;;;;;;;;;5048161;28;20223;-60
2023/08/14 08:32:46;;;;;;;15.00;8.43;;;;;;;;;;5048697;28;20208;-59
2023/08/14 08:35:12;;;;;;;15.32;8.68;;;;;;;;;;5050175;28;20230;-60
2023/08/14 08:37:37;;;;;;;13.68;8.18;;;;;;;;;;5049179;28;20249;-59
2023/08/14 08:40:05;;;;;;;15.52;8.65;;;;;;;;;;5047418;28;20756;-60
2023/08/14 08:42:30;;;;;;;15.93;8.40;;;;;;;;;;5049787;28;20263;-60
2023/08/14 08:44:55;;;;;;;15.02;8.80;;;;;;;;;;5049995;28;20242;-60
2023/08/14 08:47:22;;;;;;;15.80;7.95;;;;;;;;;;5034497;28;20203;-60
2023/08/14 08:49:48;;;;;;;16.65;7.72;;;;;;;;;;5047245;28;20277;-60
2023/08/14 08:52:13;;;;;;;12.43;7.85;;;;;;;;;;5049650;28;20670;-59
2023/08/14 08:54:38;;;;;;;13.05;7.00;;;;;;;;;;5049997;28;20641;-60
2023/08/14 08:57:04;;;;;;;15.00;7.47;;;;;;;;;;5029240;28;20768;-60
2023/08/14 08:59:29;;;;;;;14.02;7.75;;;;;;;;;;5048987;28;20211;-60
2023/08/14 09:01:55;;;;;;;12.98;7.28;;;;;;;;;;5049510;28;20601;-59
2023/08/14 09:04:20;;;;;;;15.75;7.07;;;;;;;;;;5047998;28;20223;-60
2023/08/14 09:06:45;;;;;;;16.67;7.18;;;;;;;;;;5047872;28;20234;-59
2023/08/14 09:09:11;;;;;;;16.67;7.40;;;;;;;;;;5031489;28;20312;-60
2023/08/14 09:11:36;;;;;;;13.63;6.07;;;;;;;;;;5048996;28;20674;-59
2023/08/14 09:14:02;;;;;;;14.25;6.00;;;;;;;;;;5046513;28;20223;-60
2023/08/14 09:16:27;;;;;;;14.32;6.30;;;;;;;;;;5049246;28;20222;-60
2023/08/14 09:18:55;;;;;;;11.65;5.35;;;;;;;;;;5048878;28;20282;-60
2023/08/14 09:21:21;;;;;;;12.27;4.85;;;;;;;;;;5047442;28;20230;-59
2023/08/14 09:23:46;;;;;;;12.07;4.22;;;;;;;;;;5030477;28;20632;-59
2023/08/14 09:26:11;;;;;;;9.18;4.00;;;;;;;;;;5030392;28;20776;-60
2023/08/14 09:28:37;;;;;;;13.82;3.90;;;;;;;;;;5030183;28;20678;-60
2023/08/14 09:31:09;;;;;;;11.55;3.80;;;;;;;;;;5046582;28;20223;-60
2023/08/14 09:33:35;;;;;;;10.30;3.88;;;;;;;;;;5048145;28;20219;-59
2023/08/14 09:36:01;;;;;;;9.52;3.17;;;;;;;;;;5049003;28;20235;-60
2023/08/14 09:38:26;;;;;;;9.38;3.55;;;;;;;;;;5047208;28;20296;-59
2023/08/14 09:40:56;;;;;;;7.63;3.30;;;;;;;;;;5047507;28;20233;-59
2023/08/14 09:43:22;;;;;;;9.85;3.88;;;;;;;;;;5048389;28;20235;-60
2023/08/14 09:45:47;;;;;;;10.65;4.18;;;;;;;;;;5030583;28;20219;-59
2023/08/14 09:48:12;;;;;;;10.98;4.28;;;;;;;;;;5045496;28;20203;-59
2023/08/14 09:50:37;;;;;;;10.48;3.58;;;;;;;;;;5049188;28;20285;-60
2023/08/14 09:53:03;;;;;;;9.00;3.30;;;;;;;;;;5047726;28;20276;-60
2023/08/14 09:55:28;;;;;;;9.00;3.08;;;;;;;;;;5046609;28;20210;-59
2023/08/14 09:57:54;;;;;;;9.18;3.00;;;;;;;;;;5048625;28;20207;-59
2023/08/14 10:00:19;;;;;;;8.85;3.00;;;;;;;;;;5047604;28;20300;-60
2023/08/14 10:02:46;;;;;;;6.60;2.80;;;;;;;;;;5047098;28;20272;-59
2023/08/14 10:05:11;;;;;;;9.10;3.13;;;;;;;;;;5047247;28;20215;-60
2023/08/14 10:07:38;;;;;;;5.88;2.58;;;;;;;;;;5047882;28;20219;-59
2023/08/14 10:10:03;;;;;;;9.50;3.55;;;;;;;;;;5047456;28;20221;-60
2023/08/14 10:12:29;;;;;;;8.05;2.42;;;;;;;;;;5028436;28;20215;-59
2023/08/14 10:14:58;;;;;;;9.48;2.75;;;;;;;;;;5047276;28;20274;-59
2023/08/14 10:17:25;;;;;;;8.73;2.72;;;;;;;;;;5048042;28;20703;-59
2023/08/14 10:19:50;;;;;;;7.93;2.50;;;;;;;;;;5028661;28;20203;-60
2023/08/14 10:22:16;;;;;;;8.50;2.30;;;;;;;;;;5028409;28;20803;-59
2023/08/14 10:24:41;;;;;;;7.85;2.65;;;;;;;;;;5048614;28;20219;-60
2023/08/14 10:27:06;;;;;;;8.07;2.72;;;;;;;;;;5029444;28;20234;-60
2023/08/14 10:29:32;;;;;;;6.80;2.50;;;;;;;;;;5045864;28;20211;-60
2023/08/14 10:31:57;;;;;;;6.00;2.28;;;;;;;;;;5030405;28;20207;-60
2023/08/14 10:34:23;;;;;;;10.25;2.90;;;;;;;;;;5047585;28;20238;-60
2023/08/14 10:36:49;;;;;;;6.53;2.20;;;;;;;;;;5027440;28;20222;-60
2023/08/14 10:39:14;;;;;;;8.60;2.42;;;;;;;;;;5029251;28;20229;-60
2023/08/14 10:41:40;;;;;;;6.25;2.22;;;;;;;;;;5048310;28;20211;-60
2023/08/14 10:44:06;;;;;;;6.82;2.15;;;;;;;;;;5027624;28;20223;-60
2023/08/14 10:46:33;;;;;;;8.27;2.70;;;;;;;;;;5046907;28;20688;-60
2023/08/14 10:48:59;;;;;;;9.05;2.60;;;;;;;;;;5047664;28;20207;-60
2023/08/14 10:51:24;;;;;;;7.20;2.80;;;;;;;;;;5002918;28;20211;-60
2023/08/14 10:53:54;;;;;;;10.95;2.65;;;;;;;;;;5044477;28;20211;-60
2023/08/14 10:56:20;;;;;;;7.05;2.20;;;;;;;;;;5028958;28;20798;-60
2023/08/14 10:58:51;;;;;;;5.50;2.33;;;;;;;;;;5048005;28;20215;-60
2023/08/14 11:01:16;;;;;;;6.65;2.35;;;;;;;;;;5029132;28;20207;-60
2023/08/14 11:03:55;;;;;;;6.38;2.00;;;;;;;;;;5046044;28;20709;-60
2023/08/14 11:06:21;;;;;;;9.43;2.65;;;;;;;;;;5047157;28;20231;-60
2023/08/14 11:08:49;;;;;;;7.55;2.38;;;;;;;;;;5048147;28;20289;-60
2023/08/14 11:11:14;;;;;;;6.90;2.22;;;;;;;;;;5044166;28;20269;-60
2023/08/14 11:13:40;;;;;;;7.78;2.63;;;;;;;;;;5039223;28;20609;-60
2023/08/14 11:16:05;;;;;;;7.15;2.50;;;;;;;;;;5029693;28;20630;-60
2023/08/14 11:18:30;;;;;;;7.28;2.42;;;;;;;;;;5045195;28;20215;-60
2023/08/14 11:20:58;;;;;;;7.78;2.50;;;;;;;;;;5029184;28;20237;-60
2023/08/14 11:23:23;;;;;;;8.70;2.50;;;;;;;;;;5047063;28;20314;-60
2023/08/14 11:25:48;;;;;;;7.28;2.35;;;;;;;;;;5046669;28;20298;-60
2023/08/14 11:28:14;;;;;;;5.35;1.80;;;;;;;;;;5045397;28;20693;-60
2023/08/14 11:30:39;;;;;;;5.50;1.70;;;;;;;;;;5047628;28;20674;-60
2023/08/14 11:33:05;;;;;;;5.10;1.50;;;;;;;;;;5046311;28;20586;-60
2023/08/14 11:35:30;;;;;;;5.28;1.50;;;;;;;;;;5045360;28;20231;-60
2023/08/14 11:37:56;;;;;;;6.45;2.38;;;;;;;;;;5047451;28;20690;-60
2023/08/14 11:40:21;;;;;;;6.55;1.83;;;;;;;;;;5046467;28;20269;-60
2023/08/14 11:42:46;;;;;;;5.93;1.80;;;;;;;;;;5046200;28;20230;-60
2023/08/14 11:45:12;;;;;;;6.38;1.90;;;;;;;;;;5045825;28;20211;-60
2023/08/14 11:47:38;;;;;;;5.43;1.58;;;;;;;;;;5046528;28;20618;-60
2023/08/14 11:50:04;;;;;;;6.13;1.77;;;;;;;;;;5046747;28;20314;-61
2023/08/14 11:52:29;;;;;;;5.43;1.73;;;;;;;;;;5048257;28;20597;-60
2023/08/14 11:54:54;;;;;;;7.78;1.80;;;;;;;;;;5050330;28;20215;-60
2023/08/14 11:57:23;;;;;;;5.07;1.98;;;;;;;;;;5050671;28;20243;-60
2023/08/14 11:59:49;;;;;;;8.82;2.10;;;;;;;;;;5048635;28;20223;-60
2023/08/14 12:02:14;;;;;;;6.20;1.58;;;;;;;;;;5049898;28;20226;-60
2023/08/14 12:04:40;;;;;;;5.70;1.92;;;;;;;;;;5033032;28;20219;-60
2023/08/14 12:07:06;;;;;;;5.50;1.60;;;;;;;;;;5030471;28;20218;-60
2023/08/14 12:09:31;;;;;;;6.55;1.83;;;;;;;;;;5049194;28;20207;-60
2023/08/14 12:11:57;;;;;;;7.57;1.70;;;;;;;;;;5050557;28;20288;-60
2023/08/14 12:14:22;;;;;;;6.32;2.05;;;;;;;;;;5049465;28;20211;-60
2023/08/14 12:16:47;;;;;;;4.78;1.63;;;;;;;;;;5047975;28;20199;-60
2023/08/14 12:19:13;;;;;;;6.97;1.90;;;;;;;;;;5050050;28;20223;-60
2023/08/14 12:21:38;;;;;;;4.72;1.42;;;;;;;;;;5049798;28;20301;-60
2023/08/14 12:24:04;;;;;;;10.63;1.75;;;;;;;;;;5048507;28;20234;-60
2023/08/14 12:26:36;;;;;;;7.25;2.15;;;;;;;;;;5049735;28;20235;-60
2023/08/14 12:29:01;;;;;;;7.55;1.85;;;;;;;;;;5049083;28;20215;-60
2023/08/14 12:31:26;;;;;;;4.53;1.60;;;;;;;;;;5050185;28;20670;-60
2023/08/14 12:33:52;;;;;;;5.82;1.50;;;;;;;;;;5048093;28;20564;-60
2023/08/14 12:36:17;;;;;;;4.95;1.60;;;;;;;;;;5049219;28;20561;-60
2023/08/14 12:38:42;;;;;;;4.45;1.40;;;;;;;;;;5050349;28;20288;-60
2023/08/14 12:41:07;;;;;;;5.38;1.50;;;;;;;;;;5047617;28;20317;-60
2023/08/14 12:43:33;;;;;;;6.82;1.70;;;;;;;;;;5048825;28;20247;-60
2023/08/14 12:45:58;;;;;;;4.90;1.42;;;;;;;;;;5031702;28;20294;-59
2023/08/14 12:48:23;;;;;;;4.03;1.45;;;;;;;;;;5048821;28;20226;-59
2023/08/14 12:50:49;;;;;;;5.40;1.88;;;;;;;;;;5047682;28;20203;-59
2023/08/14 12:53:16;;;;;;;6.05;1.70;;;;;;;;;;5049743;28;20217;-59
2023/08/14 12:55:44;;;;;;;5.18;1.50;;;;;;;;;;5049888;28;20530;-59
2023/08/14 12:58:09;;;;;;;4.43;1.58;;;;;;;;;;5046271;28;20344;-59
2023/08/14 13:00:35;;;;;;;4.22;1.65;;;;;;;;;;5049949;28;20222;-59
2023/08/14 13:03:00;;;;;;;5.88;1.60;;;;;;;;;;5049016;28;20230;-59
2023/08/14 13:05:25;;;;;;;4.80;1.70;;;;;;;;;;5047663;28;20210;-59
2023/08/14 13:07:51;;;;;;;4.35;1.55;;;;;;;;;;5048947;28;20674;-59
2023/08/14 13:10:16;;;;;;;6.60;1.63;;;;;;;;;;5048419;28;20737;-59
2023/08/14 13:12:41;;;;;;;4.30;1.60;;;;;;;;;;5049141;28;20681;-59
2023/08/14 13:15:07;;;;;;;5.65;1.60;;;;;;;;;;5047434;28;20622;-59
2023/08/14 13:17:32;;;;;;;6.15;1.88;;;;;;;;;;5048806;28;20301;-59
2023/08/14 13:19:57;;;;;;;5.15;1.50;;;;;;;;;;5049436;28;20342;-59
2023/08/14 13:22:23;;;;;;;4.32;1.60;;;;;;;;;;5046328;28;20227;-59
2023/08/14 13:24:48;;;;;;;5.15;1.60;;;;;;;;;;5048883;28;20219;-59
2023/08/14 13:27:13;;;;;;;4.05;1.50;;;;;;;;;;5049112;28;20207;-59
2023/08/14 13:29:39;;;;;;;4.75;1.40;;;;;;;;;;5047803;28;20211;-59
2023/08/14 13:32:04;;;;;;;6.95;1.67;;;;;;;;;;5043499;28;20218;-59
2023/08/14 13:34:30;;;;;;;6.65;1.80;;;;;;;;;;5026313;28;20227;-59
2023/08/14 13:36:55;;;;;;;5.45;1.45;;;;;;;;;;5028719;28;20219;-59
2023/08/14 13:39:20;;;;;;;4.90;1.50;;;;;;;;;;5025904;28;20246;-59
2023/08/14 13:41:46;;;;;;;4.05;1.40;;;;;;;;;;5030836;28;20210;-59
2023/08/14 13:44:11;;;;;;;6.38;1.67;;;;;;;;;;5030061;28;20296;-59
2023/08/14 13:46:37;;;;;;;4.10;1.52;;;;;;;;;;5032551;28;20628;-59
2023/08/14 13:49:06;;;;;;;7.03;1.70;;;;;;;;;;5031973;28;20223;-60
2023/08/14 13:51:31;;;;;;;5.32;1.50;;;;;;;;;;5030692;28;20213;-59
2023/08/14 13:53:56;;;;;;;4.70;1.40;;;;;;;;;;5030363;28;20220;-59
2023/08/14 13:56:22;;;;;;;5.00;1.88;;;;;;;;;;5024457;28;20218;-59
2023/08/14 13:58:47;;;;;;;6.13;1.70;;;;;;;;;;5021787;28;20307;-59
2023/08/14 14:01:12;;;;;;;4.75;1.48;;;;;;;;;;5023186;28;20289;-59
2023/08/14 14:03:37;;;;;;;5.70;1.50;;;;;;;;;;5031930;28;20243;-59
2023/08/14 14:06:03;;;;;;;6.22;1.80;;;;;;;;;;5012073;28;20278;-59
2023/08/14 14:08:28;;;;;;;5.40;1.40;;;;;;;;;;5030084;28;20219;-59
2023/08/14 14:10:54;;;;;;;5.68;1.50;;;;;;;;;;5031551;28;20254;-59
2023/08/14 14:13:19;;;;;;;5.78;1.92;;;;;;;;;;5029287;28;20604;-59
2023/08/14 14:15:44;;;;;;;6.13;1.60;;;;;;;;;;5029635;28;20214;-59
2023/08/14 14:18:10;;;;;;;4.70;1.48;;;;;;;;;;5027107;28;20222;-59
2023/08/14 14:20:35;;;;;;;6.07;1.67;;;;;;;;;;5022591;28;20357;-59
2023/08/14 14:23:01;;;;;;;6.47;1.50;;;;;;;;;;5021863;28;20575;-60
2023/08/14 14:25:26;;;;;;;4.82;1.50;;;;;;;;;;5025483;28;20589;-59
2023/08/14 14:27:51;;;;;;;5.38;1.60;;;;;;;;;;5030613;28;20224;-59